Laramie Regional Airport
KLAR : now visible

Airfield :











YOU CAN JOIN US ON...

 
LOGIN :

Register | Disclaimer

   EN    FR    IT 

 









Legend :    VFR   Marginal VFR   IFR   Intensive IFR   Very Intensive IFR
Visi :
Ceiling :
>= 8 km
>= 3000ft
5 to 8 km
1000 to 3000 ft
1500m to 5 km
500 to 1000 ft
800 to 1500m
200 to 500 ft
< 800m
< 200 ft
Symbols :   Thunderstorms  Fog  Heavy snow  Heavy precipitations  Wind > 20 kt







- Airport Elevation : 7284 ft
- IATA code : LAR


KLAR - Laramie Regional

CURRENT METAR :
  • 211102Z AUTO 04004KT 3/4SM -SN BR VV011 M03/M04 A2964 RMK AO2 P0001 T10281044

EXPIRED METARs :
  • 211051Z AUTO 05006KT 1SM -SN BR VV013 M03/M04 A2965 RMK AO2 P0004
  • 211053Z AUTO 04004KT 1SM -SN BR VV012 M03/M04 A2965 RMK AO2 SLP029 P0004 T10281044
  • 211026Z AUTO 05006KT 3/4SM -SN BR VV010 M03/M04 A2965 RMK AO2 P0003 T10281039
  • 211013Z AUTO 03005KT 1/2SM SN FZFG VV009 M03/M04 A2966 RMK AO2 P0002 T10281039
  • 210953Z AUTO 04007KT 3/4SM -SN BR VV011 M03/M04 A2966 RMK AO2 SLP027 P0003 T10281039
  • 210932Z AUTO 05006KT 1SM -SN BR VV013 M03/M04 A2967 RMK AO2 P0002 T10281039
  • 210853Z AUTO 05006KT 1 1/4SM -SN BR OVC017 M02/M04 A2967 RMK AO2 SLP030 P0003 60009 T10221039 56017
  • 210844Z AUTO 05007KT 1 1/4SM -SN BR OVC015 M02/M04 A2967 RMK AO2 P0003 T10221039
  • 210821Z AUTO 04006KT 1SM -SN BR VV012 M02/M03 A2967 RMK AO2 P0002 T10221033
  • 210808Z AUTO 05005KT 3/4SM -SN BR VV010 M02/M03 A2968 RMK AO2 P0001 T10221033

TAF KLAR
Valid from the 21 at 10:00 until the 22 at 06:00 UTC


211002Z 2110/2206 12010KT 3/4SM -SN BR VV010
FM211200 08010KT 4SM -SN BR SCT007 OVC020
FM211500 02008KT 2SM -SN BR OVC007
KZDV FIR / North America



MET'MAP, your aeronautical weather chart ! - Copyright ORBIFLY December 2007 - Disclaimer

ORBIFLY MET'MAP TEAM :

Programming & Development : Alexandra Zaïnal
Concept & Development : Baudouin d'Aumeries
Co-Development & Prog : Marc-Olivier Méhu
Technical & hardware support : Manuel Goepfert

Contact : metmap@orbifly.com




SOURCES & CREDITS :

   NOAA       Earth
Advisory